createdAt,value
2019-02-23T00:01:49.534Z,102548.84
2019-02-23T00:04:21.273Z,102549.25
2019-02-23T00:06:53.050Z,102555.37
2019-02-23T00:09:24.950Z,102560.56
2019-02-23T00:11:56.593Z,102561.01
2019-02-23T00:14:28.550Z,102552.25
2019-02-23T00:17:00.346Z,102556.16
2019-02-23T00:19:32.025Z,102559.63
2019-02-23T00:22:03.770Z,102557.84
2019-02-23T00:24:35.461Z,102565.67
2019-02-23T00:27:07.109Z,102562.16
2019-02-23T00:29:38.786Z,102565.21
2019-02-23T00:32:10.487Z,102573.44
2019-02-23T00:34:42.730Z,102578.64
2019-02-23T00:37:14.583Z,102578.20
2019-02-23T00:39:46.208Z,102579.05
2019-02-23T00:42:17.977Z,102576.42
2019-02-23T00:44:49.601Z,102570.77
2019-02-23T00:47:21.317Z,102578.11
2019-02-23T00:49:52.971Z,102577.22
2019-02-23T00:52:27.895Z,102580.27
2019-02-23T00:54:59.853Z,102571.52
2019-02-23T00:57:31.866Z,102578.92
2019-02-23T01:00:03.639Z,102576.27
2019-02-23T01:02:35.259Z,102574.52
2019-02-23T01:05:07.377Z,102578.84
2019-02-23T01:07:39.806Z,102579.28
2019-02-23T01:10:13.900Z,102573.61
2019-02-23T01:12:45.771Z,102567.05
2019-02-23T01:15:19.348Z,102571.77
2019-02-23T01:17:52.881Z,102573.50
2019-02-23T01:20:24.662Z,102578.27
2019-02-23T01:22:56.585Z,102581.27
2019-02-23T01:25:30.121Z,102592.15
2019-02-23T01:28:01.789Z,102587.73
2019-02-23T01:30:33.706Z,102589.00
2019-02-23T01:33:05.489Z,102586.80
2019-02-23T01:35:37.401Z,102581.11
2019-02-23T01:38:10.718Z,102577.60
2019-02-23T01:40:42.637Z,102586.30
2019-02-23T01:43:14.315Z,102582.36
2019-02-23T01:45:45.969Z,102586.67
2019-02-23T01:48:17.691Z,102589.69
2019-02-23T01:50:49.394Z,102581.80
2019-02-23T01:53:22.517Z,102588.73
2019-02-23T01:55:55.862Z,102587.80
2019-02-23T01:58:27.586Z,102579.55
2019-02-23T02:00:59.561Z,102586.45
2019-02-23T02:03:31.212Z,102582.97
2019-02-23T02:06:02.984Z,102583.36
2019-02-23T02:08:36.171Z,102582.91
2019-02-23T02:11:08.096Z,102578.12
2019-02-23T02:13:39.724Z,102572.02
2019-02-23T02:16:11.386Z,102582.86
2019-02-23T02:18:43.571Z,102572.86
2019-02-23T02:21:15.277Z,102582.81
2019-02-23T02:23:47.156Z,102586.70
2019-02-23T02:26:18.971Z,102590.19
2019-02-23T02:28:52.498Z,102584.05
2019-02-23T02:31:24.231Z,102575.32
2019-02-23T02:34:19.119Z,102580.50
2019-02-23T02:36:50.791Z,102582.67
2019-02-23T02:39:22.393Z,102577.82
2019-02-23T02:41:54.413Z,102586.08
2019-02-23T02:44:26.054Z,102591.23
2019-02-23T02:46:57.862Z,102595.14
2019-02-23T02:49:29.657Z,102592.08
2019-02-23T02:52:01.305Z,102588.17
2019-02-23T02:54:33.060Z,102591.60
2019-02-23T02:57:04.649Z,102581.15
2019-02-23T02:59:36.372Z,102586.73
2019-02-23T03:02:08.448Z,102589.70
2019-02-23T03:04:40.279Z,102584.44
2019-02-23T03:07:11.937Z,102586.11
2019-02-23T03:09:43.541Z,102602.59
2019-02-23T03:12:15.171Z,102596.44
2019-02-23T03:14:46.780Z,102589.87
2019-02-23T03:17:18.553Z,102590.23
2019-02-23T03:19:50.429Z,102593.26
2019-02-23T03:22:22.182Z,102591.02
2019-02-23T03:24:53.855Z,102593.06
2019-02-23T03:27:25.525Z,102585.64
2019-02-23T03:29:57.190Z,102591.64
2019-02-23T03:32:28.813Z,102596.36
2019-02-23T03:35:00.656Z,102592.84
2019-02-23T03:37:32.282Z,102590.17
2019-02-23T03:40:03.918Z,102588.38
2019-02-23T03:42:35.696Z,102597.91
2019-02-23T03:45:07.811Z,102602.24
2019-02-23T03:47:39.412Z,102597.88
2019-02-23T03:50:11.219Z,102590.03
2019-02-23T03:52:42.821Z,102595.24
2019-02-23T03:55:14.666Z,102592.64
2019-02-23T03:57:46.290Z,102595.20
2019-02-23T04:00:18.273Z,102595.59
2019-02-23T04:02:50.154Z,102586.88
2019-02-23T04:05:22.232Z,102592.05
2019-02-23T04:07:53.916Z,102588.06
2019-02-23T04:10:26.779Z,102592.78
2019-02-23T04:12:58.398Z,102590.98
2019-02-23T04:15:30.151Z,102589.19
2019-02-23T04:18:02.124Z,102591.72
2019-02-23T04:20:34.422Z,102594.25
2019-02-23T04:23:06.406Z,102583.84
2019-02-23T04:25:38.068Z,102586.44
2019-02-23T04:28:09.815Z,102579.02
2019-02-23T04:30:41.443Z,102579.41
2019-02-23T04:33:13.040Z,102579.83
2019-02-23T04:35:46.574Z,102578.10
2019-02-23T04:38:18.764Z,102585.41
2019-02-23T04:40:50.487Z,102574.55
2019-02-23T04:43:22.119Z,102576.66
2019-02-23T04:45:53.870Z,102578.33
2019-02-23T04:48:25.503Z,102562.20
2019-02-23T04:50:58.437Z,102556.49
2019-02-23T04:53:30.394Z,102558.22
2019-02-23T04:56:02.337Z,102550.41
2019-02-23T04:58:34.040Z,102551.17
2019-02-23T05:01:05.755Z,102557.18
2019-02-23T05:03:37.342Z,102568.84
2019-02-23T05:06:08.993Z,102562.69
2019-02-23T05:08:41.024Z,102559.16
2019-02-23T05:11:12.682Z,102550.44
2019-02-23T05:13:44.451Z,102569.94
2019-02-23T05:16:16.100Z,102566.42
2019-02-23T05:18:47.887Z,102580.72
2019-02-23T05:21:26.371Z,102582.86
2019-02-23T05:23:55.076Z,102577.62
2019-02-23T05:26:26.978Z,102575.90
2019-02-23T05:28:58.591Z,102569.78
2019-02-23T05:31:30.869Z,102573.72
2019-02-23T05:34:02.489Z,102566.34
2019-02-23T05:36:34.123Z,102568.89
2019-02-23T05:39:07.572Z,102564.08
2019-02-23T05:41:39.212Z,102572.70
2019-02-23T05:44:10.920Z,102571.33
2019-02-23T05:46:42.625Z,102568.69
2019-02-23T05:49:14.460Z,102570.78
2019-02-23T05:51:46.181Z,102571.62
2019-02-23T05:54:17.771Z,102576.73
2019-02-23T05:56:49.563Z,102574.97
2019-02-23T05:59:21.200Z,102570.19
2019-02-23T06:01:52.966Z,102567.97
2019-02-23T06:04:24.679Z,102564.44
2019-02-23T06:06:56.335Z,102558.33
2019-02-23T06:09:28.079Z,102560.88
2019-02-23T06:11:59.700Z,102567.79
2019-02-23T06:14:31.903Z,102564.77
2019-02-23T06:17:04.204Z,102566.91
2019-02-23T06:19:36.342Z,102563.85
2019-02-23T06:22:07.994Z,102572.91
2019-02-23T06:24:39.731Z,102576.38
2019-02-23T06:27:11.379Z,102581.95
2019-02-23T06:29:43.157Z,102580.61
2019-02-23T06:32:15.146Z,102590.56
2019-02-23T06:34:46.814Z,102591.41
2019-02-23T06:37:18.492Z,102596.98
2019-02-23T06:39:50.137Z,102601.70
2019-02-23T06:42:21.996Z,102600.36
2019-02-23T06:44:54.131Z,102605.09
2019-02-23T06:47:26.224Z,102604.22
2019-02-23T06:49:57.898Z,102592.94
2019-02-23T06:52:29.552Z,102598.97
2019-02-23T06:55:01.238Z,102598.12
2019-02-23T06:57:32.911Z,102595.53
2019-02-23T07:00:05.009Z,102587.28
2019-02-23T07:02:36.823Z,102588.58
2019-02-23T07:05:10.127Z,102589.47
2019-02-23T07:07:41.769Z,102586.87
2019-02-23T07:10:13.843Z,102591.19
2019-02-23T07:12:45.705Z,102581.67
2019-02-23T07:15:17.757Z,102584.73
2019-02-23T07:17:49.650Z,102577.41
2019-02-23T07:20:21.378Z,102577.03
2019-02-23T07:22:53.711Z,102585.33
2019-02-23T07:25:25.419Z,102585.75
2019-02-23T07:27:57.103Z,102584.91
2019-02-23T07:30:28.806Z,102584.08
2019-02-23T07:33:00.706Z,102598.41
2019-02-23T07:35:32.375Z,102595.45
2019-02-23T07:38:04.166Z,102597.20
2019-02-23T07:40:35.955Z,102587.27
2019-02-23T07:43:07.608Z,102589.97
2019-02-23T07:45:39.265Z,102599.56
2019-02-23T07:48:11.029Z,102601.83
2019-02-23T07:50:42.867Z,102602.34
2019-02-23T07:53:14.908Z,102605.03
2019-02-23T07:55:46.635Z,102605.08
2019-02-23T07:58:18.348Z,102599.96
2019-02-23T08:00:50.321Z,102607.80
2019-02-23T08:03:22.312Z,102611.78
2019-02-23T08:05:53.963Z,102605.75
2019-02-23T08:08:26.224Z,102602.78
2019-02-23T08:10:58.318Z,102605.87
2019-02-23T08:13:30.373Z,102613.77
2019-02-23T08:16:02.170Z,102605.66
2019-02-23T08:18:33.953Z,102610.53
2019-02-23T08:21:05.625Z,102612.84
2019-02-23T08:23:38.121Z,102613.37
2019-02-23T08:26:10.906Z,102614.76
2019-02-23T08:28:44.386Z,102610.09
2019-02-23T08:31:16.303Z,102614.53
2019-02-23T08:33:48.068Z,102631.10
2019-02-23T08:36:20.099Z,102626.43
2019-02-23T08:38:54.697Z,102628.23
2019-02-23T08:41:26.420Z,102632.63
2019-02-23T08:43:58.339Z,102629.67
2019-02-23T08:46:30.358Z,102630.63
2019-02-23T08:49:02.550Z,102634.22
2019-02-23T08:51:36.198Z,102639.08
2019-02-23T08:54:10.180Z,102645.23
2019-02-23T08:56:41.891Z,102647.45
2019-02-23T08:59:13.940Z,102634.51
2019-02-23T09:01:45.775Z,102638.09
2019-02-23T09:04:18.283Z,102636.47
2019-02-23T09:06:50.381Z,102644.88
2019-02-23T09:09:23.527Z,102647.16
2019-02-23T09:11:56.767Z,102651.52
2019-02-23T09:14:34.013Z,102657.61
2019-02-23T09:17:05.934Z,102658.13
2019-02-23T09:19:37.903Z,102652.46
2019-02-23T09:22:10.038Z,102639.92
2019-02-23T09:24:42.096Z,102643.86
2019-02-23T09:27:13.782Z,102634.38
2019-02-23T09:29:45.434Z,102638.31
2019-02-23T09:32:17.562Z,102645.32
2019-02-23T09:34:50.800Z,102640.62
2019-02-23T09:37:22.734Z,102634.16
2019-02-23T09:39:54.462Z,102641.64
2019-02-23T09:42:27.738Z,102639.58
2019-02-23T09:45:00.669Z,102619.67
2019-02-23T09:47:32.801Z,102627.58
2019-02-23T09:50:04.767Z,102612.48
2019-02-23T09:52:36.881Z,102605.21
2019-02-23T09:55:08.618Z,102611.77
2019-02-23T09:57:40.504Z,102619.67
2019-02-23T10:00:12.675Z,102614.95
2019-02-23T10:02:44.565Z,102610.67
2019-02-23T10:05:16.351Z,102615.10
2019-02-23T10:07:48.136Z,102613.44
2019-02-23T10:10:19.959Z,102619.55
2019-02-23T10:12:52.934Z,102620.03
2019-02-23T10:15:25.517Z,102623.55
2019-02-23T10:17:57.473Z,102627.48
2019-02-23T10:20:30.387Z,102618.84
2019-02-23T10:23:02.178Z,102621.02
2019-02-23T10:25:35.212Z,102622.34
2019-02-23T10:28:06.943Z,102628.46
2019-02-23T10:30:40.468Z,102630.23
2019-02-23T10:33:12.447Z,102634.17
2019-02-23T10:35:44.182Z,102631.58
2019-02-23T10:38:16.078Z,102634.66
2019-02-23T10:40:47.811Z,102632.55
2019-02-23T10:43:19.524Z,102626.48
2019-02-23T10:45:51.352Z,102629.11
2019-02-23T10:48:24.932Z,102630.45
2019-02-23T10:50:56.889Z,102628.31
2019-02-23T10:53:32.848Z,102618.33
2019-02-23T10:56:02.272Z,102620.09
2019-02-23T10:58:33.915Z,102610.52
2019-02-23T11:01:07.018Z,102604.03
2019-02-23T11:03:39.164Z,102595.36
2019-02-23T11:06:12.420Z,102597.57
2019-02-23T11:08:44.118Z,102582.35
2019-02-23T11:11:15.856Z,102581.50
2019-02-23T11:13:47.531Z,102578.48
2019-02-23T11:16:19.369Z,102575.02
2019-02-23T11:18:51.047Z,102571.58
2019-02-23T11:21:22.881Z,102572.48
2019-02-23T11:23:55.308Z,102557.66
2019-02-23T11:26:27.107Z,102561.19
2019-02-23T11:28:58.772Z,102549.42
2019-02-23T11:31:31.954Z,102552.50
2019-02-23T11:34:03.631Z,102554.69
2019-02-23T11:36:35.463Z,102569.09
2019-02-23T11:39:07.751Z,102561.68
2019-02-23T11:41:39.431Z,102564.30
2019-02-23T11:44:11.075Z,102552.97
2019-02-23T11:46:59.229Z,102552.12
2019-02-23T11:49:16.343Z,102548.19
2019-02-23T11:51:49.727Z,102549.53
2019-02-23T11:54:21.473Z,102554.33
2019-02-23T11:56:53.136Z,102558.68
2019-02-23T11:59:24.943Z,102550.41
2019-02-23T12:01:56.641Z,102550.41
2019-02-23T12:04:30.002Z,102549.09
2019-02-23T12:07:01.913Z,102533.81
2019-02-23T12:09:33.584Z,102526.41
2019-02-23T12:12:05.736Z,102538.19
2019-02-23T12:14:37.493Z,102538.61
2019-02-23T12:17:09.311Z,102536.02
2019-02-23T12:19:41.094Z,102519.42
2019-02-23T12:22:14.054Z,102515.97
2019-02-23T12:24:47.535Z,102518.58
2019-02-23T12:27:19.689Z,102524.68
2019-02-23T12:29:51.946Z,102528.16
2019-02-23T12:32:23.690Z,102528.61
2019-02-23T12:34:55.530Z,102515.50
2019-02-23T12:37:28.899Z,102521.16
2019-02-23T12:40:03.016Z,102528.14
2019-02-23T12:42:34.855Z,102522.45
2019-02-23T12:45:06.933Z,102522.43
2019-02-23T12:47:38.769Z,102522.88
2019-02-23T12:50:10.619Z,102511.08
2019-02-23T12:52:42.454Z,102499.23
2019-02-23T12:55:15.146Z,102492.20
2019-02-23T12:57:47.082Z,102486.94
2019-02-23T13:00:18.972Z,102476.39
2019-02-23T13:02:50.625Z,102470.25
2019-02-23T13:05:22.555Z,102481.59
2019-02-23T13:07:54.874Z,102468.00
2019-02-23T13:10:27.231Z,102462.72
2019-02-23T13:13:33.867Z,102470.16
2019-02-23T13:16:37.952Z,102469.25
2019-02-23T13:20:05.395Z,102467.06
2019-02-23T13:23:27.501Z,102458.75
2019-02-23T13:26:39.220Z,102454.82
2019-02-23T13:30:08.241Z,102453.51
2019-02-23T13:33:43.020Z,102451.72
2019-02-23T13:37:04.893Z,102444.69
2019-02-23T13:40:10.829Z,102438.56
2019-02-23T13:43:44.492Z,102427.16
2019-02-23T13:47:22.827Z,102429.30
2019-02-23T13:51:09.673Z,102432.80
2019-02-23T13:55:00.039Z,102440.23
2019-02-23T13:58:21.919Z,102440.23
2019-02-23T14:01:53.139Z,102429.70
2019-02-23T14:05:24.233Z,102431.88
2019-02-23T14:08:49.343Z,102406.93
2019-02-23T14:12:24.092Z,102420.89
2019-02-23T14:15:44.747Z,102408.16
2019-02-23T14:18:53.516Z,102403.30
2019-02-23T14:22:10.835Z,102402.77
2019-02-23T14:25:43.714Z,102412.34
2019-02-23T14:29:09.741Z,102407.08
2019-02-23T14:32:41.564Z,102398.33
2019-02-23T14:36:15.099Z,102394.38
2019-02-23T14:39:44.701Z,102394.78
2019-02-23T14:43:11.969Z,102393.51
2019-02-23T14:46:41.078Z,102389.56
2019-02-23T14:49:57.644Z,102400.56
2019-02-23T14:53:38.464Z,102395.75
2019-02-23T14:57:21.302Z,102399.26
2019-02-23T15:00:46.150Z,102400.13
2019-02-23T15:04:01.234Z,102399.69
2019-02-23T15:07:06.559Z,102393.13
2019-02-23T15:10:21.616Z,102394.00
2019-02-23T15:13:48.043Z,102397.95
2019-02-23T15:16:43.047Z,102390.11
2019-02-23T15:20:16.580Z,102411.12
2019-02-23T15:23:25.466Z,102398.04
2019-02-23T15:26:51.508Z,102390.61
2019-02-23T15:30:24.600Z,102388.02
2019-02-23T15:33:54.004Z,102392.84
2019-02-23T15:37:35.256Z,102391.14
2019-02-23T15:41:12.286Z,102396.44
2019-02-23T15:44:07.989Z,102403.89
2019-02-23T15:47:41.899Z,102397.80
2019-02-23T15:50:14.179Z,102400.86
2019-02-23T15:52:45.939Z,102402.66
2019-02-23T15:55:25.662Z,102394.38
2019-02-23T15:57:51.074Z,102397.88
2019-02-23T16:00:23.127Z,102394.42
2019-02-23T16:02:55.008Z,102395.30
2019-02-23T16:05:27.112Z,102392.67
2019-02-23T16:07:59.089Z,102395.77
2019-02-23T16:10:30.979Z,102391.88
2019-02-23T16:13:03.752Z,102394.50
2019-02-23T16:15:35.955Z,102399.75
2019-02-23T16:18:08.418Z,102398.44
2019-02-23T16:20:40.090Z,102398.91
2019-02-23T16:23:12.013Z,102405.03
2019-02-23T16:25:43.783Z,102404.19
2019-02-23T16:28:15.660Z,102409.03
2019-02-23T16:30:47.492Z,102402.04
2019-02-23T16:33:19.781Z,102413.00
2019-02-23T16:35:51.470Z,102423.93
2019-02-23T16:38:23.184Z,102425.27
2019-02-23T16:40:55.140Z,102426.62
2019-02-23T16:43:27.293Z,102424.42
2019-02-23T16:45:59.264Z,102422.73
2019-02-23T16:48:31.330Z,102424.48
2019-02-23T16:51:11.611Z,102423.63
2019-02-23T16:53:43.325Z,102428.44
2019-02-23T16:56:15.121Z,102430.65
2019-02-23T16:58:46.848Z,102427.61
2019-02-23T17:01:18.591Z,102428.08
2019-02-23T17:03:50.663Z,102425.91
2019-02-23T17:06:22.492Z,102424.59
2019-02-23T17:08:54.299Z,102435.09
2019-02-23T17:11:26.075Z,102437.73
2019-02-23T17:13:57.963Z,102435.11
2019-02-23T17:16:29.656Z,102439.96
2019-02-23T17:19:01.877Z,102445.19
2019-02-23T17:21:33.627Z,102453.94
2019-02-23T17:24:07.661Z,102455.70
2019-02-23T17:26:39.636Z,102464.86
2019-02-23T17:29:11.433Z,102460.08
2019-02-23T17:31:43.223Z,102466.17
2019-02-23T17:34:15.700Z,102467.02
2019-02-23T17:36:47.478Z,102472.71
2019-02-23T17:39:19.433Z,102466.61
2019-02-23T17:41:51.531Z,102467.48
2019-02-23T17:44:23.676Z,102463.13
2019-02-23T17:46:55.339Z,102470.99
2019-02-23T17:49:27.787Z,102477.55
2019-02-23T17:51:59.524Z,102478.83
2019-02-23T17:54:31.360Z,102476.66
2019-02-23T17:57:03.171Z,102481.45
2019-02-23T17:59:34.968Z,102478.84
2019-02-23T18:02:07.137Z,102480.56
2019-02-23T18:04:39.828Z,102477.95
2019-02-23T18:07:11.659Z,102478.39
2019-02-23T18:09:43.462Z,102479.69
2019-02-23T18:12:15.564Z,102481.44
2019-02-23T18:14:47.873Z,102477.06
2019-02-23T18:17:23.977Z,102473.13
2019-02-23T18:19:57.082Z,102484.05
2019-02-23T18:22:28.955Z,102485.77
2019-02-23T18:25:00.804Z,102482.72
2019-02-23T18:27:32.557Z,102482.27
2019-02-23T18:30:10.683Z,102484.00
2019-02-23T18:32:38.004Z,102480.08
2019-02-23T18:35:10.471Z,102476.58
2019-02-23T18:37:42.113Z,102475.72
2019-02-23T18:40:14.067Z,102480.05
2019-02-23T18:42:45.917Z,102475.26
2019-02-23T18:45:17.737Z,102484.81
2019-02-23T18:47:49.803Z,102479.14
2019-02-23T18:50:21.822Z,102479.56
2019-02-23T18:52:54.334Z,102484.37
2019-02-23T18:55:26.313Z,102482.17
2019-02-23T18:57:58.411Z,102481.73
2019-02-23T19:00:31.120Z,102483.00
2019-02-23T19:03:03.227Z,102485.17
2019-02-23T19:05:35.054Z,102499.55
2019-02-23T19:08:07.549Z,102491.28
2019-02-23T19:10:39.300Z,102493.86
2019-02-23T19:13:11.006Z,102494.30
2019-02-23T19:15:42.821Z,102496.91
2019-02-23T19:18:15.343Z,102486.88
2019-02-23T19:20:47.490Z,102489.49
2019-02-23T19:23:20.053Z,102492.53
2019-02-23T19:25:51.769Z,102482.51
2019-02-23T19:28:23.701Z,102479.02
2019-02-23T19:30:55.857Z,102486.43
2019-02-23T19:33:27.622Z,102483.39
2019-02-23T19:35:59.479Z,102480.31
2019-02-23T19:38:31.977Z,102482.91
2019-02-23T19:41:03.612Z,102495.97
2019-02-23T19:43:35.384Z,102493.36
2019-02-23T19:46:07.362Z,102489.89
2019-02-23T19:48:39.168Z,102488.56
2019-02-23T19:51:11.605Z,102492.05
2019-02-23T19:53:44.423Z,102490.28
2019-02-23T19:56:16.204Z,102487.22
2019-02-23T19:58:47.926Z,102491.09
2019-02-23T20:01:19.786Z,102493.25
2019-02-23T20:03:51.687Z,102493.69
2019-02-23T20:06:23.384Z,102489.73
2019-02-23T20:09:01.062Z,102491.48
2019-02-23T20:11:33.787Z,102494.48
2019-02-23T20:14:08.111Z,102488.81
2019-02-23T20:16:39.795Z,102494.46
2019-02-23T20:19:11.517Z,102499.25
2019-02-23T20:21:43.414Z,102496.17
2019-02-23T20:24:16.450Z,102504.00
2019-02-23T20:26:55.477Z,102508.33
2019-02-23T20:29:22.124Z,102503.48
2019-02-23T20:31:54.165Z,102506.97
2019-02-23T20:34:25.899Z,102496.94
2019-02-23T20:36:57.785Z,102508.70
2019-02-23T20:39:37.166Z,102503.41
2019-02-23T20:42:08.872Z,102501.69
2019-02-23T20:44:41.264Z,102496.85
2019-02-23T20:47:17.273Z,102502.94
2019-02-23T20:49:50.275Z,102511.16
2019-02-23T20:52:25.106Z,102504.17
2019-02-23T20:54:59.095Z,102499.80
2019-02-23T20:57:35.219Z,102507.16
2019-02-23T21:00:09.434Z,102493.19
2019-02-23T21:02:42.159Z,102493.59
2019-02-23T21:05:16.083Z,102492.27
2019-02-23T21:07:48.087Z,102486.59
2019-02-23T21:10:20.574Z,102489.20
2019-02-23T21:12:52.298Z,102481.75
2019-02-23T21:15:24.142Z,102482.16
2019-02-23T21:17:58.532Z,102471.67
2019-02-23T21:20:33.025Z,102479.48
2019-02-23T21:23:06.330Z,102490.31
2019-02-23T21:25:38.821Z,102493.78
2019-02-23T21:28:10.557Z,102494.61
2019-02-23T21:30:42.586Z,102499.84
2019-02-23T21:33:14.970Z,102493.27
2019-02-23T21:35:47.126Z,102498.47
2019-02-23T21:38:18.829Z,102496.23
2019-02-23T21:40:51.517Z,102497.09
2019-02-23T21:43:23.516Z,102496.20
2019-02-23T21:45:55.447Z,102500.48
2019-02-23T21:48:27.231Z,102501.77
2019-02-23T21:50:58.972Z,102497.80
2019-02-23T21:53:31.103Z,102496.48
2019-02-23T21:56:03.599Z,102490.34
2019-02-23T21:58:35.498Z,102485.48
2019-02-23T22:01:07.232Z,102487.58
2019-02-23T22:03:39.110Z,102497.95
2019-02-23T22:06:10.830Z,102502.72
2019-02-23T22:08:43.001Z,102494.84
2019-02-23T22:11:14.830Z,102491.77
2019-02-23T22:13:47.453Z,102494.34
2019-02-23T22:16:19.406Z,102497.38
2019-02-23T22:18:51.780Z,102486.90
2019-02-23T22:21:23.586Z,102493.39
2019-02-23T22:23:55.375Z,102494.21
2019-02-23T22:26:27.072Z,102494.97
2019-02-23T22:28:59.389Z,102496.70
2019-02-23T22:31:31.302Z,102494.06
2019-02-23T22:34:04.444Z,102493.58
2019-02-23T22:36:36.221Z,102491.37
2019-02-23T22:39:08.684Z,102497.43
2019-02-23T22:41:49.129Z,102498.70
2019-02-23T22:44:16.942Z,102500.85
2019-02-23T22:46:48.769Z,102506.48
2019-02-23T22:49:20.468Z,102500.83
2019-02-23T22:51:53.889Z,102506.88
2019-02-23T22:54:25.688Z,102509.42
2019-02-23T22:56:57.395Z,102511.53
2019-02-23T22:59:29.704Z,102511.51
2019-02-23T23:02:02.571Z,102512.78
2019-02-23T23:04:36.072Z,102508.41
2019-02-23T23:07:07.811Z,102512.75
2019-02-23T23:09:39.647Z,102515.31
2019-02-23T23:12:11.437Z,102520.95
2019-02-23T23:14:43.753Z,102520.03
2019-02-23T23:17:15.459Z,102516.09
2019-02-23T23:19:47.181Z,102522.15
2019-02-23T23:22:18.937Z,102514.77
2019-02-23T23:24:51.589Z,102517.30
2019-02-23T23:27:23.429Z,102518.60
2019-02-23T23:29:55.814Z,102518.95
2019-02-23T23:32:28.618Z,102522.83
2019-02-23T23:35:00.363Z,102531.52
2019-02-23T23:37:32.116Z,102524.59
2019-02-23T23:40:05.425Z,102532.36
2019-02-23T23:42:38.643Z,102524.94
2019-02-23T23:45:11.225Z,102530.92
2019-02-23T23:47:44.519Z,102531.30
2019-02-23T23:50:16.182Z,102531.27
2019-02-23T23:52:47.904Z,102534.26
2019-02-23T23:55:20.670Z,102527.72
2019-02-23T23:57:58.065Z,102529.44
